sensor_id;sensor_type;location;lat;lon;timestamp;P1;durP1;ratioP1;P2;durP2;ratioP2
27706;SDS011;36332;51.384;0.040;2023-02-07T00:01:26;29.88;;;10.32;;
27706;SDS011;36332;51.384;0.040;2023-02-07T00:03:55;46.92;;;9.60;;
27706;SDS011;36332;51.384;0.040;2023-02-07T00:06:25;29.77;;;10.05;;
27706;SDS011;36332;51.384;0.040;2023-02-07T00:08:54;32.00;;;10.40;;
27706;SDS011;36332;51.384;0.040;2023-02-07T00:11:24;30.00;;;9.27;;
27706;SDS011;36332;51.384;0.040;2023-02-07T00:13:54;40.05;;;10.25;;
27706;SDS011;36332;51.384;0.040;2023-02-07T00:16:23;34.85;;;10.60;;
27706;SDS011;36332;51.384;0.040;2023-02-07T00:18:52;35.67;;;10.40;;
27706;SDS011;36332;51.384;0.040;2023-02-07T00:21:21;46.83;;;11.65;;
27706;SDS011;36332;51.384;0.040;2023-02-07T00:23:50;33.08;;;10.18;;
27706;SDS011;36332;51.384;0.040;2023-02-07T00:26:20;24.50;;;10.45;;
27706;SDS011;36332;51.384;0.040;2023-02-07T00:28:49;42.80;;;10.57;;
27706;SDS011;36332;51.384;0.040;2023-02-07T00:31:20;34.30;;;10.30;;
27706;SDS011;36332;51.384;0.040;2023-02-07T00:33:49;44.20;;;10.13;;
27706;SDS011;36332;51.384;0.040;2023-02-07T00:36:20;40.75;;;10.23;;
27706;SDS011;36332;51.384;0.040;2023-02-07T00:38:49;43.72;;;11.52;;
27706;SDS011;36332;51.384;0.040;2023-02-07T00:41:17;26.30;;;10.27;;
27706;SDS011;36332;51.384;0.040;2023-02-07T00:43:46;40.83;;;9.55;;
27706;SDS011;36332;51.384;0.040;2023-02-07T00:46:14;31.38;;;11.60;;
27706;SDS011;36332;51.384;0.040;2023-02-07T00:48:42;49.60;;;12.02;;
27706;SDS011;36332;51.384;0.040;2023-02-07T00:51:11;40.50;;;11.88;;
27706;SDS011;36332;51.384;0.040;2023-02-07T00:53:39;34.10;;;10.50;;
27706;SDS011;36332;51.384;0.040;2023-02-07T00:56:08;43.33;;;11.63;;
27706;SDS011;36332;51.384;0.040;2023-02-07T00:58:36;46.67;;;17.40;;
27706;SDS011;36332;51.384;0.040;2023-02-07T01:01:05;29.27;;;10.25;;
27706;SDS011;36332;51.384;0.040;2023-02-07T01:03:33;34.55;;;11.75;;
27706;SDS011;36332;51.384;0.040;2023-02-07T01:06:01;40.40;;;12.60;;
27706;SDS011;36332;51.384;0.040;2023-02-07T01:08:29;40.03;;;12.00;;
27706;SDS011;36332;51.384;0.040;2023-02-07T01:11:00;36.45;;;11.90;;
27706;SDS011;36332;51.384;0.040;2023-02-07T01:13:29;37.63;;;10.82;;
27706;SDS011;36332;51.384;0.040;2023-02-07T01:15:58;34.88;;;11.90;;
27706;SDS011;36332;51.384;0.040;2023-02-07T01:18:27;32.45;;;12.93;;
27706;SDS011;36332;51.384;0.040;2023-02-07T01:20:54;31.48;;;11.30;;
27706;SDS011;36332;51.384;0.040;2023-02-07T01:23:22;25.77;;;10.50;;
27706;SDS011;36332;51.384;0.040;2023-02-07T01:25:49;37.63;;;10.23;;
27706;SDS011;36332;51.384;0.040;2023-02-07T01:28:17;48.05;;;13.07;;
27706;SDS011;36332;51.384;0.040;2023-02-07T01:30:45;37.05;;;13.88;;
27706;SDS011;36332;51.384;0.040;2023-02-07T01:33:13;45.75;;;11.98;;
27706;SDS011;36332;51.384;0.040;2023-02-07T01:35:40;39.42;;;12.27;;
27706;SDS011;36332;51.384;0.040;2023-02-07T01:38:12;40.95;;;12.27;;
27706;SDS011;36332;51.384;0.040;2023-02-07T01:40:39;40.17;;;14.02;;
27706;SDS011;36332;51.384;0.040;2023-02-07T01:43:12;42.35;;;13.30;;
27706;SDS011;36332;51.384;0.040;2023-02-07T01:45:44;32.55;;;11.80;;
27706;SDS011;36332;51.384;0.040;2023-02-07T01:48:13;38.33;;;12.80;;
27706;SDS011;36332;51.384;0.040;2023-02-07T01:50:46;48.53;;;11.10;;
27706;SDS011;36332;51.384;0.040;2023-02-07T01:53:16;28.58;;;10.90;;
27706;SDS011;36332;51.384;0.040;2023-02-07T01:55:47;39.40;;;13.25;;
27706;SDS011;36332;51.384;0.040;2023-02-07T01:58:19;45.92;;;13.05;;
27706;SDS011;36332;51.384;0.040;2023-02-07T02:00:48;37.55;;;11.52;;
27706;SDS011;36332;51.384;0.040;2023-02-07T02:03:17;33.88;;;12.25;;
27706;SDS011;36332;51.384;0.040;2023-02-07T02:05:44;46.75;;;13.75;;
27706;SDS011;36332;51.384;0.040;2023-02-07T02:08:14;36.38;;;13.10;;
27706;SDS011;36332;51.384;0.040;2023-02-07T02:10:46;41.78;;;14.38;;
27706;SDS011;36332;51.384;0.040;2023-02-07T02:16:06;39.58;;;13.23;;
27706;SDS011;36332;51.384;0.040;2023-02-07T02:33:55;131.57;;;17.08;;
27706;SDS011;36332;51.384;0.040;2023-02-07T02:39:20;101.05;;;18.38;;
27706;SDS011;36332;51.384;0.040;2023-02-07T02:42:00;69.50;;;15.02;;
27706;SDS011;36332;51.384;0.040;2023-02-07T02:44:35;51.10;;;11.73;;
27706;SDS011;36332;51.384;0.040;2023-02-07T02:47:08;64.95;;;15.00;;
27706;SDS011;36332;51.384;0.040;2023-02-07T02:49:36;60.13;;;15.27;;
27706;SDS011;36332;51.384;0.040;2023-02-07T02:52:06;67.07;;;16.40;;
27706;SDS011;36332;51.384;0.040;2023-02-07T02:54:34;52.25;;;17.60;;
27706;SDS011;36332;51.384;0.040;2023-02-07T03:10:59;59.95;;;14.77;;
27706;SDS011;36332;51.384;0.040;2023-02-07T03:19:37;43.63;;;12.23;;
27706;SDS011;36332;51.384;0.040;2023-02-07T03:22:11;60.25;;;13.75;;
27706;SDS011;36332;51.384;0.040;2023-02-07T03:24:49;48.78;;;12.93;;
27706;SDS011;36332;51.384;0.040;2023-02-07T03:27:21;42.80;;;11.50;;
27706;SDS011;36332;51.384;0.040;2023-02-07T03:29:51;47.20;;;13.50;;
27706;SDS011;36332;51.384;0.040;2023-02-07T03:32:26;43.55;;;12.85;;
27706;SDS011;36332;51.384;0.040;2023-02-07T03:37:32;47.00;;;12.82;;
27706;SDS011;36332;51.384;0.040;2023-02-07T03:40:03;45.30;;;11.50;;
27706;SDS011;36332;51.384;0.040;2023-02-07T03:45:03;41.92;;;11.93;;
27706;SDS011;36332;51.384;0.040;2023-02-07T03:47:34;45.92;;;12.32;;
27706;SDS011;36332;51.384;0.040;2023-02-07T03:50:02;41.10;;;12.50;;
27706;SDS011;36332;51.384;0.040;2023-02-07T03:52:31;50.70;;;13.35;;
27706;SDS011;36332;51.384;0.040;2023-02-07T03:54:58;41.45;;;11.82;;
27706;SDS011;36332;51.384;0.040;2023-02-07T03:57:26;29.65;;;12.40;;
27706;SDS011;36332;51.384;0.040;2023-02-07T03:59:54;40.50;;;11.85;;
27706;SDS011;36332;51.384;0.040;2023-02-07T04:02:21;33.40;;;10.43;;
27706;SDS011;36332;51.384;0.040;2023-02-07T04:04:49;37.08;;;11.95;;
27706;SDS011;36332;51.384;0.040;2023-02-07T04:07:16;39.33;;;12.18;;
27706;SDS011;36332;51.384;0.040;2023-02-07T04:09:44;33.97;;;11.15;;
27706;SDS011;36332;51.384;0.040;2023-02-07T04:12:11;37.60;;;10.45;;
27706;SDS011;36332;51.384;0.040;2023-02-07T04:14:39;41.78;;;11.98;;
27706;SDS011;36332;51.384;0.040;2023-02-07T04:17:06;36.50;;;11.35;;
27706;SDS011;36332;51.384;0.040;2023-02-07T04:19:34;35.42;;;12.65;;
27706;SDS011;36332;51.384;0.040;2023-02-07T04:22:01;33.50;;;10.48;;
27706;SDS011;36332;51.384;0.040;2023-02-07T04:24:29;33.70;;;10.27;;
27706;SDS011;36332;51.384;0.040;2023-02-07T04:26:58;24.98;;;9.93;;
27706;SDS011;36332;51.384;0.040;2023-02-07T04:29:25;27.85;;;10.07;;
27706;SDS011;36332;51.384;0.040;2023-02-07T04:31:53;26.38;;;9.02;;
27706;SDS011;36332;51.384;0.040;2023-02-07T04:34:23;27.98;;;9.75;;
27706;SDS011;36332;51.384;0.040;2023-02-07T04:36:50;31.52;;;8.65;;
27706;SDS011;36332;51.384;0.040;2023-02-07T04:39:18;22.35;;;8.90;;
27706;SDS011;36332;51.384;0.040;2023-02-07T04:41:46;25.80;;;8.38;;
27706;SDS011;36332;51.384;0.040;2023-02-07T04:44:14;26.52;;;10.50;;
27706;SDS011;36332;51.384;0.040;2023-02-07T04:46:41;27.45;;;8.93;;
27706;SDS011;36332;51.384;0.040;2023-02-07T04:49:09;34.40;;;11.68;;
27706;SDS011;36332;51.384;0.040;2023-02-07T04:51:39;30.00;;;10.00;;
27706;SDS011;36332;51.384;0.040;2023-02-07T04:54:07;21.58;;;9.00;;
27706;SDS011;36332;51.384;0.040;2023-02-07T04:56:34;28.05;;;9.02;;
27706;SDS011;36332;51.384;0.040;2023-02-07T04:59:02;34.28;;;11.32;;
27706;SDS011;36332;51.384;0.040;2023-02-07T05:01:30;23.02;;;8.23;;
27706;SDS011;36332;51.384;0.040;2023-02-07T05:03:57;34.50;;;10.15;;
27706;SDS011;36332;51.384;0.040;2023-02-07T05:06:25;31.83;;;10.23;;
27706;SDS011;36332;51.384;0.040;2023-02-07T05:08:56;32.33;;;10.15;;
27706;SDS011;36332;51.384;0.040;2023-02-07T05:11:28;34.63;;;9.68;;
27706;SDS011;36332;51.384;0.040;2023-02-07T05:13:55;31.77;;;9.25;;
27706;SDS011;36332;51.384;0.040;2023-02-07T05:16:23;43.95;;;10.20;;
27706;SDS011;36332;51.384;0.040;2023-02-07T05:18:51;38.70;;;10.00;;
27706;SDS011;36332;51.384;0.040;2023-02-07T05:21:18;36.10;;;8.93;;
27706;SDS011;36332;51.384;0.040;2023-02-07T05:23:46;27.15;;;9.43;;
27706;SDS011;36332;51.384;0.040;2023-02-07T05:26:14;41.22;;;10.45;;
27706;SDS011;36332;51.384;0.040;2023-02-07T05:28:43;27.83;;;9.30;;
27706;SDS011;36332;51.384;0.040;2023-02-07T05:31:10;31.52;;;10.75;;
27706;SDS011;36332;51.384;0.040;2023-02-07T05:33:38;37.83;;;9.50;;
27706;SDS011;36332;51.384;0.040;2023-02-07T05:36:06;31.75;;;10.50;;
27706;SDS011;36332;51.384;0.040;2023-02-07T05:38:34;37.13;;;10.80;;
27706;SDS011;36332;51.384;0.040;2023-02-07T05:41:02;33.35;;;10.57;;
27706;SDS011;36332;51.384;0.040;2023-02-07T05:43:29;30.63;;;9.27;;
27706;SDS011;36332;51.384;0.040;2023-02-07T05:45:57;32.20;;;9.85;;
27706;SDS011;36332;51.384;0.040;2023-02-07T05:48:24;35.88;;;9.90;;
27706;SDS011;36332;51.384;0.040;2023-02-07T05:50:51;47.42;;;11.23;;
27706;SDS011;36332;51.384;0.040;2023-02-07T05:53:19;39.90;;;10.57;;
27706;SDS011;36332;51.384;0.040;2023-02-07T05:55:49;37.00;;;10.02;;
27706;SDS011;36332;51.384;0.040;2023-02-07T05:58:18;30.08;;;10.93;;
27706;SDS011;36332;51.384;0.040;2023-02-07T06:00:46;33.97;;;9.32;;
27706;SDS011;36332;51.384;0.040;2023-02-07T06:03:14;36.25;;;11.15;;
27706;SDS011;36332;51.384;0.040;2023-02-07T06:05:42;32.35;;;9.60;;
27706;SDS011;36332;51.384;0.040;2023-02-07T06:08:09;44.30;;;10.55;;
27706;SDS011;36332;51.384;0.040;2023-02-07T06:10:37;43.78;;;11.63;;
27706;SDS011;36332;51.384;0.040;2023-02-07T06:13:04;30.25;;;9.18;;
27706;SDS011;36332;51.384;0.040;2023-02-07T06:15:32;36.70;;;10.30;;
27706;SDS011;36332;51.384;0.040;2023-02-07T06:17:59;35.58;;;11.05;;
27706;SDS011;36332;51.384;0.040;2023-02-07T06:20:27;35.65;;;11.25;;
27706;SDS011;36332;51.384;0.040;2023-02-07T06:22:54;41.47;;;11.98;;
27706;SDS011;36332;51.384;0.040;2023-02-07T06:25:22;39.58;;;10.98;;
27706;SDS011;36332;51.384;0.040;2023-02-07T06:27:50;39.72;;;11.05;;
27706;SDS011;36332;51.384;0.040;2023-02-07T06:30:17;30.05;;;10.82;;
27706;SDS011;36332;51.384;0.040;2023-02-07T06:32:45;42.85;;;11.65;;
27706;SDS011;36332;51.384;0.040;2023-02-07T06:35:12;39.72;;;12.15;;
27706;SDS011;36332;51.384;0.040;2023-02-07T06:37:40;42.15;;;11.73;;
27706;SDS011;36332;51.384;0.040;2023-02-07T06:40:07;35.85;;;12.13;;
27706;SDS011;36332;51.384;0.040;2023-02-07T06:42:35;39.78;;;12.10;;
27706;SDS011;36332;51.384;0.040;2023-02-07T06:45:03;46.55;;;13.93;;
27706;SDS011;36332;51.384;0.040;2023-02-07T06:47:30;40.55;;;13.40;;
27706;SDS011;36332;51.384;0.040;2023-02-07T06:49:58;37.30;;;13.05;;
27706;SDS011;36332;51.384;0.040;2023-02-07T06:52:26;44.00;;;12.80;;
27706;SDS011;36332;51.384;0.040;2023-02-07T06:54:54;44.40;;;14.02;;
27706;SDS011;36332;51.384;0.040;2023-02-07T06:57:21;51.40;;;14.43;;
27706;SDS011;36332;51.384;0.040;2023-02-07T06:59:49;49.58;;;12.20;;
27706;SDS011;36332;51.384;0.040;2023-02-07T07:02:16;43.97;;;13.65;;
27706;SDS011;36332;51.384;0.040;2023-02-07T07:04:44;52.35;;;13.40;;
27706;SDS011;36332;51.384;0.040;2023-02-07T07:07:11;47.97;;;14.25;;
27706;SDS011;36332;51.384;0.040;2023-02-07T07:09:39;40.15;;;14.75;;
27706;SDS011;36332;51.384;0.040;2023-02-07T07:12:07;58.38;;;14.65;;
27706;SDS011;36332;51.384;0.040;2023-02-07T07:14:34;57.20;;;18.02;;
27706;SDS011;36332;51.384;0.040;2023-02-07T07:17:02;55.25;;;16.50;;
27706;SDS011;36332;51.384;0.040;2023-02-07T07:19:29;54.42;;;16.08;;
27706;SDS011;36332;51.384;0.040;2023-02-07T07:21:57;63.33;;;15.93;;
27706;SDS011;36332;51.384;0.040;2023-02-07T07:24:25;49.47;;;15.52;;
27706;SDS011;36332;51.384;0.040;2023-02-07T07:26:53;52.92;;;18.90;;
27706;SDS011;36332;51.384;0.040;2023-02-07T07:29:22;54.67;;;16.58;;
27706;SDS011;36332;51.384;0.040;2023-02-07T07:31:50;60.80;;;18.25;;
27706;SDS011;36332;51.384;0.040;2023-02-07T07:34:17;55.30;;;15.98;;
27706;SDS011;36332;51.384;0.040;2023-02-07T07:36:45;78.53;;;23.17;;
27706;SDS011;36332;51.384;0.040;2023-02-07T07:39:12;73.22;;;19.60;;
27706;SDS011;36332;51.384;0.040;2023-02-07T07:41:40;47.20;;;17.02;;
27706;SDS011;36332;51.384;0.040;2023-02-07T07:44:15;55.80;;;17.20;;
27706;SDS011;36332;51.384;0.040;2023-02-07T07:46:43;64.38;;;21.58;;
27706;SDS011;36332;51.384;0.040;2023-02-07T07:49:11;76.88;;;21.77;;
27706;SDS011;36332;51.384;0.040;2023-02-07T07:51:38;62.78;;;18.52;;
27706;SDS011;36332;51.384;0.040;2023-02-07T07:54:06;70.70;;;19.13;;
27706;SDS011;36332;51.384;0.040;2023-02-07T07:56:33;55.70;;;19.90;;
27706;SDS011;36332;51.384;0.040;2023-02-07T07:59:01;59.30;;;20.70;;
27706;SDS011;36332;51.384;0.040;2023-02-07T08:01:37;55.90;;;20.30;;
27706;SDS011;36332;51.384;0.040;2023-02-07T08:04:05;74.95;;;22.85;;
27706;SDS011;36332;51.384;0.040;2023-02-07T08:06:33;68.18;;;21.27;;
27706;SDS011;36332;51.384;0.040;2023-02-07T08:09:01;64.88;;;19.50;;
27706;SDS011;36332;51.384;0.040;2023-02-07T08:11:29;55.92;;;19.92;;
27706;SDS011;36332;51.384;0.040;2023-02-07T08:13:56;70.30;;;21.67;;
27706;SDS011;36332;51.384;0.040;2023-02-07T08:16:24;67.68;;;21.25;;
27706;SDS011;36332;51.384;0.040;2023-02-07T08:18:51;59.10;;;20.05;;
27706;SDS011;36332;51.384;0.040;2023-02-07T08:21:19;59.45;;;20.23;;
27706;SDS011;36332;51.384;0.040;2023-02-07T08:23:46;72.50;;;20.75;;
27706;SDS011;36332;51.384;0.040;2023-02-07T08:26:14;66.13;;;19.88;;
27706;SDS011;36332;51.384;0.040;2023-02-07T08:28:42;67.50;;;21.25;;
27706;SDS011;36332;51.384;0.040;2023-02-07T08:31:09;59.58;;;19.60;;
27706;SDS011;36332;51.384;0.040;2023-02-07T08:33:38;61.15;;;21.63;;
27706;SDS011;36332;51.384;0.040;2023-02-07T08:36:05;59.70;;;20.83;;
27706;SDS011;36332;51.384;0.040;2023-02-07T08:38:36;60.38;;;20.63;;
27706;SDS011;36332;51.384;0.040;2023-02-07T08:41:04;68.63;;;24.55;;
27706;SDS011;36332;51.384;0.040;2023-02-07T08:43:31;67.88;;;22.95;;
27706;SDS011;36332;51.384;0.040;2023-02-07T08:45:59;62.53;;;22.25;;
27706;SDS011;36332;51.384;0.040;2023-02-07T08:48:27;66.70;;;21.65;;
27706;SDS011;36332;51.384;0.040;2023-02-07T08:50:55;65.15;;;21.23;;
27706;SDS011;36332;51.384;0.040;2023-02-07T08:53:25;57.45;;;23.00;;
27706;SDS011;36332;51.384;0.040;2023-02-07T08:55:52;68.82;;;21.52;;
27706;SDS011;36332;51.384;0.040;2023-02-07T08:58:20;65.82;;;22.77;;
27706;SDS011;36332;51.384;0.040;2023-02-07T09:00:48;55.13;;;19.83;;
27706;SDS011;36332;51.384;0.040;2023-02-07T09:03:16;73.00;;;20.83;;
27706;SDS011;36332;51.384;0.040;2023-02-07T09:05:43;90.28;;;23.05;;
27706;SDS011;36332;51.384;0.040;2023-02-07T09:08:11;58.58;;;19.38;;
27706;SDS011;36332;51.384;0.040;2023-02-07T09:10:38;60.53;;;20.90;;
27706;SDS011;36332;51.384;0.040;2023-02-07T09:13:07;58.53;;;19.17;;
27706;SDS011;36332;51.384;0.040;2023-02-07T09:15:34;354.15;;;49.88;;
27706;SDS011;36332;51.384;0.040;2023-02-07T09:18:02;130.45;;;26.75;;
27706;SDS011;36332;51.384;0.040;2023-02-07T09:20:29;88.35;;;23.52;;
27706;SDS011;36332;51.384;0.040;2023-02-07T09:22:57;66.38;;;19.95;;
27706;SDS011;36332;51.384;0.040;2023-02-07T09:25:42;63.23;;;23.30;;
27706;SDS011;36332;51.384;0.040;2023-02-07T09:28:15;55.42;;;20.10;;
27706;SDS011;36332;51.384;0.040;2023-02-07T09:30:44;64.78;;;21.00;;
27706;SDS011;36332;51.384;0.040;2023-02-07T09:33:13;57.90;;;19.90;;
27706;SDS011;36332;51.384;0.040;2023-02-07T09:35:42;60.90;;;20.73;;
27706;SDS011;36332;51.384;0.040;2023-02-07T09:38:13;46.70;;;19.83;;
27706;SDS011;36332;51.384;0.040;2023-02-07T09:40:43;61.67;;;20.88;;
27706;SDS011;36332;51.384;0.040;2023-02-07T09:46:06;55.78;;;20.63;;
27706;SDS011;36332;51.384;0.040;2023-02-07T09:48:59;67.43;;;22.60;;
27706;SDS011;36332;51.384;0.040;2023-02-07T09:51:38;51.33;;;20.25;;
27706;SDS011;36332;51.384;0.040;2023-02-07T09:54:27;60.25;;;23.40;;
27706;SDS011;36332;51.384;0.040;2023-02-07T09:57:09;78.63;;;27.35;;
27706;SDS011;36332;51.384;0.040;2023-02-07T09:59:52;85.55;;;29.60;;
27706;SDS011;36332;51.384;0.040;2023-02-07T10:05:12;68.05;;;28.17;;
27706;SDS011;36332;51.384;0.040;2023-02-07T10:07:46;80.78;;;29.33;;
27706;SDS011;36332;51.384;0.040;2023-02-07T10:11:01;74.10;;;30.95;;
27706;SDS011;36332;51.384;0.040;2023-02-07T10:13:14;69.72;;;28.35;;
27706;SDS011;36332;51.384;0.040;2023-02-07T10:16:12;71.40;;;28.90;;
27706;SDS011;36332;51.384;0.040;2023-02-07T10:19:04;69.70;;;30.13;;
27706;SDS011;36332;51.384;0.040;2023-02-07T10:22:02;65.55;;;28.55;;
27706;SDS011;36332;51.384;0.040;2023-02-07T10:27:23;84.60;;;34.15;;
27706;SDS011;36332;51.384;0.040;2023-02-07T10:30:00;75.17;;;32.30;;
27706;SDS011;36332;51.384;0.040;2023-02-07T10:32:35;73.35;;;30.75;;
27706;SDS011;36332;51.384;0.040;2023-02-07T10:35:15;73.68;;;31.25;;
27706;SDS011;36332;51.384;0.040;2023-02-07T10:37:46;78.07;;;32.78;;
27706;SDS011;36332;51.384;0.040;2023-02-07T10:45:36;69.25;;;32.10;;
27706;SDS011;36332;51.384;0.040;2023-02-07T10:48:10;74.63;;;32.58;;
27706;SDS011;36332;51.384;0.040;2023-02-07T10:50:41;69.90;;;31.17;;
27706;SDS011;36332;51.384;0.040;2023-02-07T10:53:10;73.57;;;31.67;;
27706;SDS011;36332;51.384;0.040;2023-02-07T10:55:39;66.57;;;28.90;;
27706;SDS011;36332;51.384;0.040;2023-02-07T10:58:15;69.78;;;27.77;;
27706;SDS011;36332;51.384;0.040;2023-02-07T11:00:51;60.30;;;26.17;;
27706;SDS011;36332;51.384;0.040;2023-02-07T11:03:20;50.95;;;22.40;;
27706;SDS011;36332;51.384;0.040;2023-02-07T11:05:59;60.83;;;25.83;;
27706;SDS011;36332;51.384;0.040;2023-02-07T11:08:31;53.00;;;23.60;;
27706;SDS011;36332;51.384;0.040;2023-02-07T11:14:04;41.70;;;17.77;;
27706;SDS011;36332;51.384;0.040;2023-02-07T11:16:32;59.65;;;22.70;;
27706;SDS011;36332;51.384;0.040;2023-02-07T11:19:05;49.00;;;19.92;;
27706;SDS011;36332;51.384;0.040;2023-02-07T11:21:41;41.30;;;19.13;;
27706;SDS011;36332;51.384;0.040;2023-02-07T11:24:13;54.97;;;20.23;;
27706;SDS011;36332;51.384;0.040;2023-02-07T11:27:00;51.20;;;21.10;;
27706;SDS011;36332;51.384;0.040;2023-02-07T11:29:30;59.40;;;19.50;;
27706;SDS011;36332;51.384;0.040;2023-02-07T11:32:03;63.10;;;20.67;;
27706;SDS011;36332;51.384;0.040;2023-02-07T11:34:45;50.83;;;16.55;;
27706;SDS011;36332;51.384;0.040;2023-02-07T11:39:43;43.42;;;16.83;;
27706;SDS011;36332;51.384;0.040;2023-02-07T11:42:21;45.45;;;17.00;;
27706;SDS011;36332;51.384;0.040;2023-02-07T11:44:51;44.72;;;14.05;;
27706;SDS011;36332;51.384;0.040;2023-02-07T11:47:28;44.85;;;13.95;;
27706;SDS011;36332;51.384;0.040;2023-02-07T11:49:58;39.35;;;10.18;;
27706;SDS011;36332;51.384;0.040;2023-02-07T11:52:30;26.45;;;8.55;;
27706;SDS011;36332;51.384;0.040;2023-02-07T11:55:01;25.42;;;8.25;;
27706;SDS011;36332;51.384;0.040;2023-02-07T11:57:34;36.63;;;9.00;;
27706;SDS011;36332;51.384;0.040;2023-02-07T12:02:38;18.80;;;7.45;;
27706;SDS011;36332;51.384;0.040;2023-02-07T12:05:08;19.00;;;7.20;;
27706;SDS011;36332;51.384;0.040;2023-02-07T12:07:44;35.53;;;8.82;;
27706;SDS011;36332;51.384;0.040;2023-02-07T12:10:20;29.80;;;7.50;;
27706;SDS011;36332;51.384;0.040;2023-02-07T12:15:34;28.00;;;8.60;;
27706;SDS011;36332;51.384;0.040;2023-02-07T12:20:51;28.33;;;9.35;;
27706;SDS011;36332;51.384;0.040;2023-02-07T12:35:10;33.15;;;11.77;;
27706;SDS011;36332;51.384;0.040;2023-02-07T12:37:45;24.98;;;9.23;;
27706;SDS011;36332;51.384;0.040;2023-02-07T12:45:57;36.88;;;12.10;;
27706;SDS011;36332;51.384;0.040;2023-02-07T12:49:10;35.63;;;10.43;;
27706;SDS011;36332;51.384;0.040;2023-02-07T13:00:17;26.88;;;7.65;;
27706;SDS011;36332;51.384;0.040;2023-02-07T13:03:07;25.95;;;7.78;;
27706;SDS011;36332;51.384;0.040;2023-02-07T13:21:59;23.65;;;8.50;;
27706;SDS011;36332;51.384;0.040;2023-02-07T13:24:32;25.35;;;8.80;;
27706;SDS011;36332;51.384;0.040;2023-02-07T13:27:04;29.77;;;9.70;;
27706;SDS011;36332;51.384;0.040;2023-02-07T13:29:38;31.33;;;8.30;;
27706;SDS011;36332;51.384;0.040;2023-02-07T13:32:07;28.13;;;7.85;;
27706;SDS011;36332;51.384;0.040;2023-02-07T13:34:44;23.08;;;8.40;;
27706;SDS011;36332;51.384;0.040;2023-02-07T13:37:19;26.33;;;9.02;;
27706;SDS011;36332;51.384;0.040;2023-02-07T13:45:19;25.90;;;8.20;;
27706;SDS011;36332;51.384;0.040;2023-02-07T13:47:58;23.30;;;8.77;;
27706;SDS011;36332;51.384;0.040;2023-02-07T13:50:44;29.33;;;8.93;;
27706;SDS011;36332;51.384;0.040;2023-02-07T13:56:08;22.52;;;7.97;;
27706;SDS011;36332;51.384;0.040;2023-02-07T13:58:57;27.20;;;9.75;;
27706;SDS011;36332;51.384;0.040;2023-02-07T14:01:48;33.75;;;13.43;;
27706;SDS011;36332;51.384;0.040;2023-02-07T14:04:18;24.85;;;9.60;;
27706;SDS011;36332;51.384;0.040;2023-02-07T14:09:38;43.00;;;26.73;;
27706;SDS011;36332;51.384;0.040;2023-02-07T14:23:17;27.98;;;10.05;;
27706;SDS011;36332;51.384;0.040;2023-02-07T14:25:45;21.90;;;9.27;;
27706;SDS011;36332;51.384;0.040;2023-02-07T14:28:17;25.20;;;11.95;;
27706;SDS011;36332;51.384;0.040;2023-02-07T14:31:10;25.92;;;10.50;;
27706;SDS011;36332;51.384;0.040;2023-02-07T14:36:37;20.58;;;9.73;;
27706;SDS011;36332;51.384;0.040;2023-02-07T14:39:19;29.13;;;10.05;;
27706;SDS011;36332;51.384;0.040;2023-02-07T14:42:00;22.77;;;9.20;;
27706;SDS011;36332;51.384;0.040;2023-02-07T14:44:58;29.73;;;10.05;;
27706;SDS011;36332;51.384;0.040;2023-02-07T14:47:27;27.02;;;10.18;;
27706;SDS011;36332;51.384;0.040;2023-02-07T14:49:57;34.42;;;11.45;;
27706;SDS011;36332;51.384;0.040;2023-02-07T14:52:28;37.40;;;13.00;;
27706;SDS011;36332;51.384;0.040;2023-02-07T15:00:22;28.70;;;11.02;;
27706;SDS011;36332;51.384;0.040;2023-02-07T15:02:55;33.30;;;13.68;;
27706;SDS011;36332;51.384;0.040;2023-02-07T15:05:38;27.95;;;11.73;;
27706;SDS011;36332;51.384;0.040;2023-02-07T15:08:19;26.52;;;11.70;;
27706;SDS011;36332;51.384;0.040;2023-02-07T15:13:23;23.25;;;10.25;;
27706;SDS011;36332;51.384;0.040;2023-02-07T15:15:52;29.55;;;12.32;;
27706;SDS011;36332;51.384;0.040;2023-02-07T15:18:24;28.73;;;12.57;;
27706;SDS011;36332;51.384;0.040;2023-02-07T15:20:55;37.53;;;14.20;;
27706;SDS011;36332;51.384;0.040;2023-02-07T15:23:25;28.80;;;11.95;;
27706;SDS011;36332;51.384;0.040;2023-02-07T15:25:55;27.10;;;11.48;;
27706;SDS011;36332;51.384;0.040;2023-02-07T15:28:28;23.98;;;10.77;;
27706;SDS011;36332;51.384;0.040;2023-02-07T15:31:05;30.45;;;12.10;;
27706;SDS011;36332;51.384;0.040;2023-02-07T15:33:47;27.75;;;10.60;;
27706;SDS011;36332;51.384;0.040;2023-02-07T15:36:25;29.60;;;11.48;;
27706;SDS011;36332;51.384;0.040;2023-02-07T15:39:03;31.27;;;11.73;;
27706;SDS011;36332;51.384;0.040;2023-02-07T15:41:46;20.70;;;9.52;;
27706;SDS011;36332;51.384;0.040;2023-02-07T15:44:23;30.27;;;11.05;;
27706;SDS011;36332;51.384;0.040;2023-02-07T15:46:56;33.08;;;11.27;;
27706;SDS011;36332;51.384;0.040;2023-02-07T15:52:10;24.15;;;10.32;;
27706;SDS011;36332;51.384;0.040;2023-02-07T15:54:47;24.63;;;10.48;;
27706;SDS011;36332;51.384;0.040;2023-02-07T16:00:05;50.08;;;25.35;;
27706;SDS011;36332;51.384;0.040;2023-02-07T16:02:41;36.15;;;13.35;;
27706;SDS011;36332;51.384;0.040;2023-02-07T16:05:22;26.00;;;11.70;;
27706;SDS011;36332;51.384;0.040;2023-02-07T16:07:56;34.78;;;11.90;;
27706;SDS011;36332;51.384;0.040;2023-02-07T16:13:00;25.33;;;11.80;;
27706;SDS011;36332;51.384;0.040;2023-02-07T16:15:51;30.38;;;11.32;;
27706;SDS011;36332;51.384;0.040;2023-02-07T16:18:36;42.53;;;11.57;;
27706;SDS011;36332;51.384;0.040;2023-02-07T16:21:09;35.58;;;12.80;;
27706;SDS011;36332;51.384;0.040;2023-02-07T16:23:40;33.13;;;11.75;;
27706;SDS011;36332;51.384;0.040;2023-02-07T16:26:08;29.40;;;11.10;;
27706;SDS011;36332;51.384;0.040;2023-02-07T16:28:36;31.02;;;12.65;;
27706;SDS011;36332;51.384;0.040;2023-02-07T16:31:04;28.48;;;10.60;;
27706;SDS011;36332;51.384;0.040;2023-02-07T16:33:32;35.15;;;13.15;;
27706;SDS011;36332;51.384;0.040;2023-02-07T16:35:59;34.85;;;12.35;;
27706;SDS011;36332;51.384;0.040;2023-02-07T16:38:27;36.08;;;11.93;;
27706;SDS011;36332;51.384;0.040;2023-02-07T16:40:55;27.15;;;10.73;;
27706;SDS011;36332;51.384;0.040;2023-02-07T16:43:45;38.70;;;11.88;;
27706;SDS011;36332;51.384;0.040;2023-02-07T16:46:11;35.15;;;11.32;;
27706;SDS011;36332;51.384;0.040;2023-02-07T16:48:39;32.28;;;12.48;;
27706;SDS011;36332;51.384;0.040;2023-02-07T16:51:07;42.97;;;15.07;;
27706;SDS011;36332;51.384;0.040;2023-02-07T16:53:34;38.95;;;15.57;;
27706;SDS011;36332;51.384;0.040;2023-02-07T16:56:02;50.10;;;16.13;;
27706;SDS011;36332;51.384;0.040;2023-02-07T16:58:30;48.30;;;15.27;;
27706;SDS011;36332;51.384;0.040;2023-02-07T17:00:59;49.13;;;16.15;;
27706;SDS011;36332;51.384;0.040;2023-02-07T17:03:28;54.10;;;17.80;;
27706;SDS011;36332;51.384;0.040;2023-02-07T17:05:56;48.97;;;18.23;;
27706;SDS011;36332;51.384;0.040;2023-02-07T17:08:23;61.10;;;18.13;;
27706;SDS011;36332;51.384;0.040;2023-02-07T17:10:59;54.47;;;17.45;;
27706;SDS011;36332;51.384;0.040;2023-02-07T17:13:31;41.97;;;18.38;;
27706;SDS011;36332;51.384;0.040;2023-02-07T17:15:59;46.78;;;19.98;;
27706;SDS011;36332;51.384;0.040;2023-02-07T17:18:27;42.85;;;20.25;;
27706;SDS011;36332;51.384;0.040;2023-02-07T17:20:55;55.00;;;19.25;;
27706;SDS011;36332;51.384;0.040;2023-02-07T17:23:23;53.15;;;20.75;;